Time;durP1;ratioP1;P1;durP2;ratioP2;P2;SDS_P1;SDS_P2;PMS_P1;PMS_P2;Temp;Humidity;BMP_temperature;BMP_pressure;BME280_temperature;BME280_humidity;BME280_pressure;Samples;Min_cycle;Max_cycle;Signal;HPM_P1;HPM_P2
2021/08/17 00:01:48;;;;;;;6.90;2.58;;;13.90;99.90;;;;;;5011750;28;20378;-66
2021/08/17 00:04:14;;;;;;;6.53;2.78;;;13.90;99.90;;;;;;5011824;28;20513;-67
2021/08/17 00:06:40;;;;;;;5.68;2.72;;;13.90;99.90;;;;;;5012041;28;20030;-67
2021/08/17 00:09:06;;;;;;;9.55;3.00;;;13.80;99.90;;;;;;5010687;28;20081;-66
2021/08/17 00:11:31;;;;;;;7.25;3.15;;;13.70;99.90;;;;;;5027248;28;20042;-66
2021/08/17 00:13:57;;;;;;;7.15;3.25;;;13.80;99.90;;;;;;5015380;28;20493;-67
2021/08/17 00:16:23;;;;;;;6.25;3.00;;;13.70;99.90;;;;;;5030320;28;20140;-66
2021/08/17 00:18:49;;;;;;;8.82;3.28;;;13.70;99.90;;;;;;5030445;28;20025;-66
2021/08/17 00:21:15;;;;;;;8.98;2.85;;;13.70;99.90;;;;;;5030244;28;20458;-67
2021/08/17 00:23:41;;;;;;;6.35;3.00;;;13.70;99.90;;;;;;5015056;28;20040;-66
2021/08/17 00:26:06;;;;;;;6.57;3.17;;;13.60;99.90;;;;;;5030505;28;20108;-67
2021/08/17 00:28:32;;;;;;;6.10;2.90;;;13.60;99.90;;;;;;5030282;28;20030;-66
2021/08/17 00:30:58;;;;;;;14.27;3.33;;;13.60;99.90;;;;;;5030683;28;20438;-66
2021/08/17 00:33:24;;;;;;;7.53;3.38;;;13.50;99.90;;;;;;5014662;28;20124;-66
2021/08/17 00:35:52;;;;;;;11.73;3.80;;;13.50;99.90;;;;;;5015239;28;20026;-66
2021/08/17 00:38:18;;;;;;;8.32;3.53;;;13.40;99.90;;;;;;5014771;28;20474;-67
2021/08/17 00:40:44;;;;;;;9.98;4.05;;;13.40;99.90;;;;;;5015058;28;20065;-66
2021/08/17 00:43:10;;;;;;;10.95;3.63;;;13.40;99.90;;;;;;5029678;28;20057;-66
2021/08/17 00:45:36;;;;;;;10.55;3.33;;;13.40;99.90;;;;;;5014983;28;20112;-66
2021/08/17 00:48:03;;;;;;;12.25;3.55;;;13.30;99.90;;;;;;5029961;28;20026;-66
2021/08/17 00:50:34;;;;;;;5.43;3.03;;;13.30;99.90;;;;;;5014760;28;20061;-67
2021/08/17 00:53:02;;;;;;;11.32;3.22;;;13.20;99.90;;;;;;5013077;28;20041;-67
2021/08/17 00:55:28;;;;;;;6.35;3.55;;;13.20;99.90;;;;;;5029606;28;20041;-67
2021/08/17 00:57:55;;;;;;;6.78;3.28;;;13.20;99.90;;;;;;5029784;28;20704;-67
2021/08/17 01:00:21;;;;;;;9.63;3.05;;;13.20;99.90;;;;;;5014567;28;20450;-67
2021/08/17 01:02:47;;;;;;;10.18;3.83;;;13.20;99.90;;;;;;5029815;28;20034;-67
2021/08/17 01:05:16;;;;;;;8.32;3.67;;;13.20;99.90;;;;;;5014411;28;20033;-67
2021/08/17 01:07:41;;;;;;;7.65;2.90;;;13.20;99.90;;;;;;5014123;28;20030;-67
2021/08/17 01:10:12;;;;;;;10.23;2.78;;;13.20;99.90;;;;;;5014406;28;20037;-67
2021/08/17 01:12:40;;;;;;;8.35;3.00;;;13.20;99.90;;;;;;5029214;28;20547;-67
2021/08/17 01:15:11;;;;;;;10.75;3.10;;;13.10;99.90;;;;;;5013930;28;20046;-67
2021/08/17 01:17:39;;;;;;;7.70;3.22;;;13.00;99.90;;;;;;5028961;28;20032;-67
2021/08/17 01:20:10;;;;;;;9.25;3.45;;;13.00;99.90;;;;;;5029188;28;20042;-67
2021/08/17 01:22:36;;;;;;;7.50;3.00;;;13.00;99.90;;;;;;5028574;28;20474;-67
2021/08/17 01:25:02;;;;;;;7.30;3.70;;;13.10;99.90;;;;;;5028452;28;20042;-67
2021/08/17 01:27:28;;;;;;;7.85;3.40;;;13.10;99.90;;;;;;5013624;28;20040;-67
2021/08/17 01:29:54;;;;;;;8.95;3.90;;;13.20;99.90;;;;;;5014165;28;20041;-67
2021/08/17 01:32:20;;;;;;;6.60;3.10;;;13.20;99.90;;;;;;5013598;28;20029;-67
2021/08/17 01:34:45;;;;;;;8.32;3.53;;;13.20;99.90;;;;;;5013730;28;20104;-67
2021/08/17 01:37:11;;;;;;;7.63;2.90;;;13.30;99.90;;;;;;5013396;28;20017;-67
2021/08/17 01:39:37;;;;;;;8.15;3.20;;;13.30;99.90;;;;;;5028903;28;20080;-67
2021/08/17 01:42:03;;;;;;;7.60;3.28;;;13.40;99.90;;;;;;5013569;28;20382;-67
2021/08/17 01:44:29;;;;;;;8.25;3.47;;;13.40;99.90;;;;;;5013346;28;20042;-67
2021/08/17 01:46:55;;;;;;;8.32;3.50;;;13.30;99.90;;;;;;5013895;28;20037;-67
2021/08/17 01:49:21;;;;;;;10.02;3.92;;;13.20;99.90;;;;;;5013529;28;20037;-67
2021/08/17 01:51:48;;;;;;;9.32;3.75;;;13.10;99.90;;;;;;5013464;28;20030;-67
2021/08/17 01:54:18;;;;;;;7.43;4.22;;;13.10;99.90;;;;;;5028603;28;20038;-68
2021/08/17 01:56:45;;;;;;;9.80;3.65;;;13.10;99.90;;;;;;5028623;28;20496;-67
2021/08/17 01:59:13;;;;;;;9.18;3.92;;;13.00;99.90;;;;;;5028405;28;20041;-67
2021/08/17 02:01:42;;;;;;;7.15;3.45;;;13.00;99.90;;;;;;5028208;28;20045;-67
2021/08/17 02:04:08;;;;;;;8.55;3.80;;;12.90;99.90;;;;;;5012960;28;20501;-67
2021/08/17 02:06:34;;;;;;;7.88;3.47;;;12.90;99.90;;;;;;5013239;28;20038;-67
2021/08/17 02:09:01;;;;;;;9.27;3.83;;;12.90;99.90;;;;;;5012991;28;20139;-67
2021/08/17 02:11:27;;;;;;;8.02;3.53;;;12.90;99.90;;;;;;5013304;28;20532;-67
2021/08/17 02:13:53;;;;;;;14.38;5.43;;;12.90;99.90;;;;;;5012942;28;20026;-67
2021/08/17 02:16:19;;;;;;;9.23;3.72;;;12.90;99.90;;;;;;5012794;28;20056;-67
2021/08/17 02:18:45;;;;;;;9.15;3.25;;;12.90;99.90;;;;;;5012773;28;20548;-67
2021/08/17 02:21:10;;;;;;;11.35;5.00;;;13.00;99.90;;;;;;5012862;28;20038;-67
2021/08/17 02:23:38;;;;;;;8.77;3.30;;;13.10;99.90;;;;;;5012687;28;20430;-67
2021/08/17 02:26:04;;;;;;;10.50;4.30;;;13.20;99.90;;;;;;5028084;28;20034;-67
2021/08/17 02:28:30;;;;;;;8.43;3.80;;;13.20;99.90;;;;;;5012574;28;20038;-67
2021/08/17 02:30:56;;;;;;;8.13;3.50;;;13.20;99.90;;;;;;5012644;28;20140;-67
2021/08/17 02:33:21;;;;;;;9.98;3.30;;;13.20;99.90;;;;;;5012872;28;20042;-67
2021/08/17 02:35:47;;;;;;;13.88;5.80;;;13.30;99.90;;;;;;5028009;28;20153;-67
2021/08/17 02:38:13;;;;;;;10.52;3.55;;;13.30;99.90;;;;;;5012535;28;20037;-68
2021/08/17 02:40:41;;;;;;;8.82;3.63;;;13.40;99.90;;;;;;5027875;28;20444;-67
2021/08/17 02:43:07;;;;;;;9.13;3.92;;;13.50;99.90;;;;;;5011297;28;20073;-67
2021/08/17 02:45:33;;;;;;;10.50;4.20;;;13.40;99.90;;;;;;5012374;28;20068;-67
2021/08/17 02:48:01;;;;;;;9.00;3.45;;;13.40;99.90;;;;;;5012476;28;20030;-67
2021/08/17 02:50:30;;;;;;;9.10;4.25;;;13.40;99.90;;;;;;5012533;28;20046;-67
2021/08/17 02:52:56;;;;;;;7.38;3.83;;;13.40;99.90;;;;;;5027584;28;20041;-67
2021/08/17 02:55:22;;;;;;;9.82;3.80;;;13.50;99.90;;;;;;5027580;28;20034;-67
2021/08/17 02:57:55;;;;;;;7.85;3.72;;;13.60;99.90;;;;;;5012718;28;20037;-67
2021/08/17 03:00:21;;;;;;;8.30;4.00;;;13.60;99.90;;;;;;5027590;28;20033;-67
2021/08/17 03:02:48;;;;;;;8.15;4.03;;;13.50;99.90;;;;;;5012399;28;20141;-67
2021/08/17 03:05:14;;;;;;;6.78;3.15;;;13.60;99.90;;;;;;5012293;28;20037;-67
2021/08/17 03:08:03;;;;;;;9.32;3.25;;;13.50;99.90;;;;;;5012431;28;20084;-67
2021/08/17 03:10:31;;;;;;;7.63;3.50;;;13.60;99.90;;;;;;5027586;28;20054;-67
2021/08/17 03:12:57;;;;;;;8.50;4.18;;;13.60;99.90;;;;;;5012329;28;20033;-67
2021/08/17 03:15:24;;;;;;;8.40;3.42;;;13.40;99.90;;;;;;5012221;28;20042;-67
2021/08/17 03:17:50;;;;;;;7.38;3.45;;;13.30;99.90;;;;;;5012628;28;20450;-67
2021/08/17 03:20:18;;;;;;;10.82;3.80;;;13.30;99.90;;;;;;5012508;28;20026;-67
2021/08/17 03:22:44;;;;;;;8.98;4.15;;;13.20;99.90;;;;;;5027816;28;20056;-67
2021/08/17 03:25:13;;;;;;;7.13;3.63;;;13.30;99.90;;;;;;5012337;28;20034;-67
2021/08/17 03:27:40;;;;;;;9.02;3.53;;;13.20;99.90;;;;;;5012226;28;20049;-67
2021/08/17 03:30:15;;;;;;;6.75;3.40;;;13.10;99.90;;;;;;5027256;28;20351;-67
2021/08/17 03:32:42;;;;;;;10.43;4.07;;;13.20;99.90;;;;;;5010953;28;20033;-67
2021/08/17 03:35:09;;;;;;;10.88;4.03;;;13.30;99.90;;;;;;5012223;28;20121;-67
2021/08/17 03:37:38;;;;;;;10.18;4.60;;;13.30;99.90;;;;;;5011772;28;20036;-67
2021/08/17 03:40:11;;;;;;;6.75;3.15;;;13.40;99.90;;;;;;5026871;28;20029;-67
2021/08/17 03:42:38;;;;;;;9.05;4.10;;;13.40;99.90;;;;;;5026963;28;20033;-67
2021/08/17 03:45:07;;;;;;;9.75;3.83;;;13.40;99.90;;;;;;5011872;28;20046;-68
2021/08/17 03:47:33;;;;;;;10.88;3.80;;;13.40;99.90;;;;;;5013856;28;20033;-67
2021/08/17 03:49:58;;;;;;;9.80;3.90;;;13.40;99.90;;;;;;5015839;28;20038;-67
2021/08/17 03:52:24;;;;;;;9.88;4.05;;;13.30;99.90;;;;;;5040871;28;20061;-66
2021/08/17 03:54:50;;;;;;;10.68;4.28;;;13.30;99.90;;;;;;5035252;28;20029;-67
2021/08/17 03:57:16;;;;;;;8.70;4.00;;;13.10;99.90;;;;;;5035545;28;20032;-67
2021/08/17 03:59:42;;;;;;;9.27;4.78;;;13.00;99.90;;;;;;5035620;28;20029;-67
2021/08/17 04:02:10;;;;;;;15.20;5.13;;;13.00;99.90;;;;;;5036462;28;20021;-68
2021/08/17 04:04:38;;;;;;;13.75;4.90;;;13.00;99.90;;;;;;5035239;28;20041;-67
2021/08/17 04:07:04;;;;;;;14.77;5.00;;;12.90;99.90;;;;;;5034242;28;20531;-65
2021/08/17 04:09:30;;;;;;;12.02;4.38;;;12.80;99.90;;;;;;5035399;28;20033;-66
2021/08/17 04:11:55;;;;;;;13.30;6.55;;;12.80;99.90;;;;;;5033841;28;20068;-65
2021/08/17 04:14:21;;;;;;;10.60;5.00;;;12.70;99.90;;;;;;5034733;28;20033;-67
2021/08/17 04:16:47;;;;;;;15.77;6.03;;;12.70;99.90;;;;;;5035226;28;20033;-65
2021/08/17 04:19:13;;;;;;;13.82;5.07;;;12.60;99.90;;;;;;5034957;28;20029;-65
2021/08/17 04:21:38;;;;;;;11.15;5.38;;;12.50;99.90;;;;;;5037876;28;20102;-65
2021/08/17 04:24:04;;;;;;;13.88;5.50;;;12.50;99.90;;;;;;5053430;28;20056;-65
2021/08/17 04:26:30;;;;;;;14.05;5.40;;;12.50;99.90;;;;;;5054791;28;20041;-65
2021/08/17 04:28:56;;;;;;;11.65;5.38;;;12.50;99.90;;;;;;5054970;28;20033;-65
2021/08/17 04:31:22;;;;;;;13.30;5.78;;;12.50;99.90;;;;;;5054531;28;20548;-65
2021/08/17 04:33:50;;;;;;;15.93;6.80;;;12.60;99.90;;;;;;5054747;28;20124;-64
2021/08/17 04:36:16;;;;;;;14.38;6.53;;;12.50;99.90;;;;;;5054365;28;20033;-65
2021/08/17 04:38:42;;;;;;;13.77;5.72;;;12.50;99.90;;;;;;5054742;28;20618;-65
2021/08/17 04:41:07;;;;;;;17.33;6.82;;;12.50;99.90;;;;;;5054639;28;20431;-64
2021/08/17 04:43:33;;;;;;;17.80;6.43;;;12.40;99.90;;;;;;5054230;28;20041;-65
2021/08/17 04:45:59;;;;;;;14.32;6.80;;;12.40;99.90;;;;;;5054404;28;20037;-63
2021/08/17 04:48:25;;;;;;;16.95;6.22;;;12.30;99.90;;;;;;5054451;28;20483;-65
2021/08/17 04:50:50;;;;;;;18.30;7.30;;;12.20;99.90;;;;;;5054169;28;20485;-65
2021/08/17 04:53:16;;;;;;;15.15;7.13;;;12.20;99.90;;;;;;5037583;28;20108;-65
2021/08/17 04:55:42;;;;;;;14.05;6.63;;;12.10;99.90;;;;;;5049562;28;20096;-64
2021/08/17 04:58:08;;;;;;;17.63;7.13;;;12.20;99.90;;;;;;5034352;28;20025;-65
2021/08/17 05:00:34;;;;;;;16.30;7.13;;;12.10;99.90;;;;;;5034077;28;20086;-65
2021/08/17 05:02:59;;;;;;;16.65;7.20;;;12.10;99.90;;;;;;5049827;28;20116;-65
2021/08/17 05:05:26;;;;;;;18.90;8.00;;;12.20;99.90;;;;;;5034086;28;20033;-65
2021/08/17 05:07:54;;;;;;;18.63;7.90;;;12.20;99.90;;;;;;5033991;28;20040;-65
2021/08/17 05:10:22;;;;;;;19.67;9.07;;;12.20;99.90;;;;;;5034116;28;20038;-65
2021/08/17 05:12:48;;;;;;;20.30;7.93;;;12.10;99.90;;;;;;5034214;28;20584;-65
2021/08/17 05:15:15;;;;;;;17.88;7.95;;;12.20;99.90;;;;;;5033878;28;20053;-65
2021/08/17 05:17:41;;;;;;;22.30;7.70;;;12.20;99.90;;;;;;5034026;28;20056;-65
2021/08/17 05:20:10;;;;;;;16.25;7.28;;;12.40;99.90;;;;;;5033709;28;20076;-59
2021/08/17 05:22:36;;;;;;;16.58;7.13;;;12.40;99.90;;;;;;5033601;28;20432;-60
2021/08/17 05:25:02;;;;;;;16.90;7.43;;;12.40;99.90;;;;;;5033866;28;20030;-59
2021/08/17 05:27:27;;;;;;;16.13;6.55;;;12.30;99.90;;;;;;5032919;28;20026;-59
2021/08/17 05:29:55;;;;;;;14.27;6.50;;;12.40;99.90;;;;;;5032157;28;20393;-60
2021/08/17 05:32:22;;;;;;;17.00;6.50;;;12.40;99.90;;;;;;5033472;28;20075;-59
2021/08/17 05:34:48;;;;;;;14.77;6.45;;;12.50;99.90;;;;;;5033502;28;20030;-59
2021/08/17 05:37:14;;;;;;;14.45;5.97;;;12.50;99.90;;;;;;5033731;28;20033;-59
2021/08/17 05:39:42;;;;;;;13.02;6.07;;;12.60;99.90;;;;;;5033472;28;20033;-59
2021/08/17 05:42:12;;;;;;;15.00;5.53;;;12.60;99.90;;;;;;5033591;28;20034;-59
2021/08/17 05:44:43;;;;;;;14.93;6.03;;;12.60;99.90;;;;;;5033552;28;20033;-59
2021/08/17 05:47:09;;;;;;;11.10;5.28;;;12.80;99.90;;;;;;5033447;28;20033;-59
2021/08/17 05:49:39;;;;;;;14.60;5.43;;;12.90;99.90;;;;;;5033350;28;20489;-60
2021/08/17 05:52:07;;;;;;;13.23;6.07;;;12.90;99.90;;;;;;5040196;28;20033;-59
2021/08/17 05:54:32;;;;;;;16.23;6.80;;;12.90;99.90;;;;;;5053275;28;20037;-58
2021/08/17 05:56:59;;;;;;;12.75;5.70;;;12.90;99.90;;;;;;5052983;28;20528;-59
2021/08/17 05:59:32;;;;;;;14.50;6.82;;;12.80;99.90;;;;;;5053219;28;20102;-59
2021/08/17 06:02:00;;;;;;;13.82;6.57;;;12.90;99.90;;;;;;5053078;28;20036;-59
2021/08/17 06:04:26;;;;;;;18.90;7.55;;;13.00;99.90;;;;;;5048070;28;20381;-59
2021/08/17 06:06:53;;;;;;;14.77;5.93;;;13.20;99.90;;;;;;5031887;28;20044;-59
2021/08/17 06:09:19;;;;;;;18.83;6.68;;;13.30;99.90;;;;;;5032804;28;20421;-59
2021/08/17 06:11:47;;;;;;;13.88;6.60;;;13.20;99.90;;;;;;5033031;28;20104;-59
2021/08/17 06:14:13;;;;;;;17.63;7.05;;;13.20;99.90;;;;;;5032076;28;20091;-59
2021/08/17 06:16:40;;;;;;;19.05;6.43;;;13.30;99.90;;;;;;5026975;28;20042;-64
2021/08/17 06:19:06;;;;;;;14.57;7.35;;;13.40;99.90;;;;;;5012084;28;20037;-66
2021/08/17 06:21:34;;;;;;;16.58;6.97;;;13.40;99.90;;;;;;5031295;28;20026;-67
2021/08/17 06:24:01;;;;;;;15.98;6.72;;;13.50;99.90;;;;;;5046650;28;20092;-67
2021/08/17 06:26:27;;;;;;;18.13;7.38;;;13.40;99.90;;;;;;5031486;28;20037;-67
2021/08/17 06:28:54;;;;;;;21.98;9.10;;;13.50;99.90;;;;;;5032640;28;20084;-67
2021/08/17 06:31:23;;;;;;;17.67;7.95;;;13.50;99.90;;;;;;5032825;28;20044;-64
2021/08/17 06:33:50;;;;;;;17.88;7.43;;;13.40;99.90;;;;;;5032901;28;20033;-67
2021/08/17 06:36:17;;;;;;;18.90;7.28;;;13.40;99.90;;;;;;5047780;28;20026;-66
2021/08/17 06:38:43;;;;;;;20.48;7.63;;;13.40;99.90;;;;;;5032383;28;20033;-66
2021/08/17 06:41:09;;;;;;;20.48;8.18;;;13.50;99.90;;;;;;5032517;28;20029;-65
2021/08/17 06:43:35;;;;;;;18.38;7.60;;;13.50;99.90;;;;;;5047459;28;20124;-66
2021/08/17 06:46:02;;;;;;;16.15;7.05;;;13.60;99.90;;;;;;5032476;28;20033;-66
2021/08/17 06:48:28;;;;;;;17.55;7.32;;;13.60;99.90;;;;;;5047236;28;20021;-65
2021/08/17 06:50:54;;;;;;;15.57;6.97;;;13.60;99.90;;;;;;5032168;28;20033;-66
2021/08/17 06:53:20;;;;;;;17.38;7.45;;;13.70;99.90;;;;;;5032104;28;20036;-66
2021/08/17 06:55:46;;;;;;;18.33;6.80;;;13.80;99.90;;;;;;5032126;28;20525;-65
2021/08/17 06:58:13;;;;;;;18.25;7.88;;;14.00;99.90;;;;;;5032427;28;20029;-66
2021/08/17 07:00:43;;;;;;;16.95;7.18;;;14.10;99.90;;;;;;5031041;28;20040;-66
2021/08/17 07:03:10;;;;;;;14.52;6.82;;;14.20;99.90;;;;;;5047598;28;20167;-65
2021/08/17 07:05:37;;;;;;;12.85;6.88;;;14.30;99.90;;;;;;5032365;28;20047;-65
2021/08/17 07:08:07;;;;;;;15.80;7.55;;;14.50;99.90;;;;;;5047227;28;20072;-65
2021/08/17 07:10:34;;;;;;;14.60;7.28;;;14.60;99.90;;;;;;5047317;28;20040;-65
2021/08/17 07:13:00;;;;;;;16.17;8.00;;;14.60;99.90;;;;;;5032293;28;20080;-65
2021/08/17 07:15:26;;;;;;;16.48;6.32;;;14.70;99.90;;;;;;5032033;28;20053;-65
2021/08/17 07:17:53;;;;;;;11.95;6.07;;;14.70;99.90;;;;;;5032046;28;20030;-65
2021/08/17 07:20:19;;;;;;;15.85;6.95;;;14.70;99.90;;;;;;5047426;28;20030;-65
2021/08/17 07:22:45;;;;;;;11.95;6.50;;;14.70;99.90;;;;;;5034580;28;20076;-65
2021/08/17 07:25:12;;;;;;;12.25;6.30;;;14.90;99.90;;;;;;5035969;28;20065;-65
2021/08/17 07:27:39;;;;;;;13.88;6.35;;;14.90;99.90;;;;;;5035720;28;20032;-66
2021/08/17 07:30:11;;;;;;;11.80;6.10;;;15.00;99.90;;;;;;5051211;28;20059;-66
2021/08/17 07:32:44;;;;;;;13.27;6.00;;;15.00;99.90;;;;;;5035748;28;20033;-66
2021/08/17 07:35:13;;;;;;;15.68;7.07;;;15.10;99.90;;;;;;5050344;28;20033;-66
2021/08/17 07:37:42;;;;;;;16.85;6.90;;;15.20;99.90;;;;;;5035860;28;20029;-66
2021/08/17 07:40:08;;;;;;;12.68;7.20;;;15.30;99.90;;;;;;5035783;28;20069;-66
2021/08/17 07:42:35;;;;;;;15.25;5.95;;;15.50;99.90;;;;;;5051026;28;20299;-66
2021/08/17 07:45:03;;;;;;;16.42;6.40;;;15.60;99.90;;;;;;5051071;28;20100;-66
2021/08/17 07:47:31;;;;;;;11.55;6.43;;;15.70;99.90;;;;;;5035765;28;20030;-67
2021/08/17 07:49:56;;;;;;;15.23;6.68;;;15.70;99.90;;;;;;5035483;28;20103;-67
2021/08/17 07:52:23;;;;;;;12.98;6.00;;;15.80;99.90;;;;;;5035312;28;20025;-67
2021/08/17 07:54:48;;;;;;;12.48;5.93;;;15.90;99.90;;;;;;5051068;28;20038;-67
2021/08/17 07:57:14;;;;;;;13.88;6.32;;;16.00;99.90;;;;;;5050874;28;20041;-67
2021/08/17 07:59:40;;;;;;;13.68;6.43;;;16.20;99.90;;;;;;5035263;28;20034;-67
2021/08/17 08:02:06;;;;;;;11.85;5.95;;;16.20;99.90;;;;;;5035341;28;20044;-67
2021/08/17 08:04:32;;;;;;;13.43;6.05;;;16.20;99.90;;;;;;5035352;28;20081;-66
2021/08/17 08:06:57;;;;;;;13.23;5.93;;;16.30;99.90;;;;;;5035504;28;20151;-67
2021/08/17 08:09:23;;;;;;;12.90;5.97;;;16.30;99.90;;;;;;5036772;28;20087;-67
2021/08/17 08:11:49;;;;;;;12.55;6.28;;;16.50;99.90;;;;;;5035043;28;20025;-66
2021/08/17 08:14:14;;;;;;;13.27;6.43;;;16.60;99.90;;;;;;5035122;28;20387;-67
2021/08/17 08:16:41;;;;;;;12.95;6.03;;;16.60;99.90;;;;;;5033629;28;20464;-67
2021/08/17 08:19:07;;;;;;;14.75;5.75;;;16.60;99.90;;;;;;5033941;28;20033;-66
2021/08/17 08:21:33;;;;;;;10.52;5.63;;;16.90;99.90;;;;;;5033532;28;20086;-67
2021/08/17 08:24:01;;;;;;;16.35;6.82;;;16.90;99.90;;;;;;5033444;28;20044;-67
2021/08/17 08:26:26;;;;;;;15.18;6.03;;;17.00;99.90;;;;;;5033743;28;20037;-68
2021/08/17 08:28:52;;;;;;;14.07;6.30;;;17.20;99.90;;;;;;5033556;28;20052;-69
2021/08/17 08:31:21;;;;;;;15.70;6.82;;;17.20;99.90;;;;;;5032708;28;20363;-67
2021/08/17 08:33:47;;;;;;;14.43;7.07;;;17.30;99.90;;;;;;5033040;28;20025;-67
2021/08/17 08:36:12;;;;;;;12.60;6.53;;;17.40;99.90;;;;;;5032625;28;20035;-67
2021/08/17 08:38:38;;;;;;;10.30;5.63;;;17.50;99.90;;;;;;5033566;28;20038;-67
2021/08/17 08:41:04;;;;;;;9.57;5.30;;;17.60;99.90;;;;;;5033358;28;20034;-67
2021/08/17 08:43:30;;;;;;;16.60;6.32;;;17.50;99.90;;;;;;5033325;28;20368;-66
2021/08/17 08:45:56;;;;;;;12.75;6.00;;;17.40;99.90;;;;;;5033533;28;20025;-66
2021/08/17 08:48:22;;;;;;;11.18;6.00;;;17.20;99.90;;;;;;5033433;28;20095;-66
2021/08/17 08:50:50;;;;;;;12.40;5.63;;;17.20;99.90;;;;;;5032317;28;20033;-66
2021/08/17 08:53:19;;;;;;;14.10;7.15;;;17.30;99.90;;;;;;5033107;28;20116;-66
2021/08/17 08:55:45;;;;;;;11.48;6.28;;;17.40;99.90;;;;;;5033362;28;20148;-66
2021/08/17 08:58:11;;;;;;;14.98;6.75;;;17.40;99.90;;;;;;5033274;28;20057;-66
2021/08/17 09:00:37;;;;;;;16.27;6.65;;;17.50;99.90;;;;;;5032121;28;20025;-66
2021/08/17 09:03:03;;;;;;;11.05;5.70;;;17.50;99.90;;;;;;5033113;28;20056;-66
2021/08/17 09:05:29;;;;;;;12.48;6.68;;;17.50;99.90;;;;;;5032912;28;20040;-67
2021/08/17 09:07:56;;;;;;;13.93;6.72;;;17.50;99.90;;;;;;5031783;28;20082;-66
2021/08/17 09:10:26;;;;;;;14.23;6.40;;;17.20;99.90;;;;;;5031539;28;20442;-66
2021/08/17 09:12:59;;;;;;;11.48;6.65;;;17.00;99.90;;;;;;5032265;28;20033;-67
2021/08/17 09:15:36;;;;;;;14.02;5.97;;;17.00;99.90;;;;;;4981053;28;1466885;-66
2021/08/17 09:18:12;;;;;;;15.60;7.00;;;16.90;99.90;;;;;;5033975;28;20029;-67
2021/08/17 09:20:42;;;;;;;14.32;7.03;;;16.80;99.90;;;;;;5033592;28;20029;-67
2021/08/17 09:23:36;;;;;;;11.75;6.15;;;16.80;99.90;;;;;;5032640;28;20562;-67
2021/08/17 09:26:29;;;;;;;17.65;7.65;;;16.70;99.90;;;;;;5032575;28;20061;-67
2021/08/17 09:29:01;;;;;;;14.25;7.72;;;16.70;99.90;;;;;;5032343;28;20040;-67
2021/08/17 09:31:38;;;;;;;12.50;6.57;;;16.80;99.90;;;;;;5033895;28;20032;-67
2021/08/17 09:34:08;;;;;;;14.40;7.30;;;16.90;99.90;;;;;;5015908;28;20029;-67
2021/08/17 09:36:45;;;;;;;11.85;6.53;;;16.90;99.90;;;;;;5033725;28;20120;-68
2021/08/17 09:39:25;;;;;;;15.25;6.68;;;16.90;99.90;;;;;;5032119;28;20036;-68
2021/08/17 09:41:51;;;;;;;16.08;6.85;;;17.00;99.90;;;;;;5032245;28;20465;-67
2021/08/17 09:44:20;;;;;;;12.48;6.72;;;17.10;99.90;;;;;;5032675;28;20037;-67
2021/08/17 09:46:46;;;;;;;16.48;7.30;;;17.30;99.90;;;;;;5033339;28;20033;-66
2021/08/17 09:49:30;;;;;;;14.85;6.38;;;17.30;99.90;;;;;;5033328;28;20080;-66
2021/08/17 09:51:59;;;;;;;14.63;6.32;;;17.60;99.90;;;;;;5033068;28;20053;-67
2021/08/17 09:54:27;;;;;;;13.70;6.20;;;17.60;99.90;;;;;;5033248;28;20034;-66
2021/08/17 09:57:02;;;;;;;11.80;5.47;;;17.70;99.90;;;;;;5032878;28;20025;-67
2021/08/17 09:59:34;;;;;;;11.20;6.05;;;17.80;99.90;;;;;;5031576;28;20367;-65
2021/08/17 10:02:19;;;;;;;13.23;6.78;;;18.00;99.90;;;;;;5015769;28;20086;-67
2021/08/17 10:04:51;;;;;;;12.38;6.07;;;17.90;99.90;;;;;;5033016;28;20477;-68
2021/08/17 10:07:18;;;;;;;11.25;6.18;;;17.70;99.90;;;;;;5051535;28;20033;-68
2021/08/17 10:09:47;;;;;;;10.90;5.80;;;17.60;99.90;;;;;;5051147;28;20029;-69
2021/08/17 10:12:13;;;;;;;14.18;5.93;;;17.50;99.90;;;;;;5053116;28;20029;-67
2021/08/17 10:14:42;;;;;;;14.57;6.20;;;17.40;99.90;;;;;;5051039;28;20101;-68
2021/08/17 10:17:10;;;;;;;11.15;6.60;;;17.40;99.90;;;;;;5051477;28;20066;-67
2021/08/17 10:19:39;;;;;;;12.38;5.78;;;17.20;99.90;;;;;;5051129;28;20037;-68
2021/08/17 10:22:06;;;;;;;13.27;7.00;;;17.00;99.90;;;;;;5051431;28;20040;-68
2021/08/17 10:24:35;;;;;;;13.93;7.00;;;17.20;99.90;;;;;;5051370;28;20036;-67
2021/08/17 10:27:28;;;;;;;12.48;6.45;;;17.30;99.90;;;;;;5052398;28;20445;-67
2021/08/17 10:30:07;;;;;;;10.75;6.13;;;17.40;99.90;;;;;;5068222;28;20040;-68
2021/08/17 10:32:40;;;;;;;11.88;6.13;;;17.50;99.90;;;;;;5053018;28;20524;-68
2021/08/17 10:36:08;;;;;;;12.95;7.13;;;17.60;99.90;;;;;;5051215;28;20144;-68
2021/08/17 10:38:41;;;;;;;11.55;6.15;;;17.70;99.90;;;;;;4985664;28;20441;-68
2021/08/17 10:41:08;;;;;;;11.57;6.45;;;18.00;99.90;;;;;;5046171;28;20546;-68
2021/08/17 10:43:34;;;;;;;16.38;8.20;;;18.20;99.90;;;;;;5052369;28;20025;-68
2021/08/17 10:46:07;;;;;;;12.55;7.03;;;18.30;99.90;;;;;;5050713;28;20102;-68
2021/08/17 10:51:22;;;;;;;9.48;5.30;;;18.60;99.90;;;;;;5052026;28;20045;-67
2021/08/17 10:53:51;;;;;;;11.75;5.75;;;18.70;99.90;;;;;;5050801;28;20436;-68
2021/08/17 10:56:31;;;;;;;9.82;5.00;;;18.60;99.90;;;;;;5050608;28;20033;-67
2021/08/17 10:58:59;;;;;;;11.05;5.53;;;18.70;99.90;;;;;;5050688;28;20121;-68
2021/08/17 11:01:31;;;;;;;10.05;5.05;;;18.70;99.90;;;;;;5051915;28;20711;-67
2021/08/17 11:04:13;;;;;;;10.32;4.80;;;18.80;99.10;;;;;;5052005;28;20056;-68
2021/08/17 11:06:53;;;;;;;8.77;5.10;;;18.70;98.90;;;;;;5050552;28;20429;-67
2021/08/17 11:09:33;;;;;;;10.30;5.55;;;18.90;99.10;;;;;;5052088;28;20059;-67
2021/08/17 11:12:10;;;;;;;10.88;5.57;;;18.80;99.60;;;;;;5051951;28;20036;-67
2021/08/17 11:14:42;;;;;;;14.15;5.90;;;19.10;99.10;;;;;;5050698;28;20025;-67
2021/08/17 11:17:17;;;;;;;11.43;5.10;;;19.40;99.90;;;;;;5052055;28;20032;-68
2021/08/17 11:19:48;;;;;;;10.35;5.28;;;19.60;98.40;;;;;;5034372;28;20029;-67
2021/08/17 11:22:19;;;;;;;12.93;5.25;;;19.90;98.30;;;;;;5051582;28;20470;-67
2021/08/17 11:24:53;;;;;;;12.93;5.80;;;20.00;97.80;;;;;;5051862;28;20037;-68
2021/08/17 11:27:30;;;;;;;10.18;4.97;;;20.10;98.70;;;;;;5050415;28;20041;-68
2021/08/17 11:30:16;;;;;;;10.90;5.97;;;20.20;98.30;;;;;;5050394;28;20032;-68
2021/08/17 11:32:54;;;;;;;9.45;5.43;;;20.50;98.20;;;;;;5047687;28;20112;-68
2021/08/17 11:35:23;;;;;;;8.32;4.55;;;20.60;97.00;;;;;;5051915;28;20406;-67
2021/08/17 11:38:06;;;;;;;9.32;5.35;;;20.50;97.60;;;;;;5051424;28;20124;-68
2021/08/17 11:41:02;;;;;;;9.15;4.85;;;20.40;96.50;;;;;;5034977;28;20060;-69
2021/08/17 11:43:28;;;;;;;8.95;4.60;;;20.30;96.90;;;;;;5043376;28;20044;-69
2021/08/17 11:45:57;;;;;;;11.73;4.70;;;20.30;96.20;;;;;;5051289;28;20036;-69
2021/08/17 11:48:24;;;;;;;9.95;5.95;;;20.40;96.30;;;;;;5051741;28;20025;-69
2021/08/17 11:50:50;;;;;;;11.50;5.38;;;20.20;96.10;;;;;;5049865;28;20485;-69
2021/08/17 11:53:17;;;;;;;9.57;5.13;;;20.40;96.40;;;;;;5051300;28;20083;-69
2021/08/17 11:55:43;;;;;;;9.70;5.13;;;20.40;97.10;;;;;;5050240;28;20025;-68
2021/08/17 11:58:10;;;;;;;8.55;5.00;;;20.30;96.20;;;;;;5048148;28;20067;-69
2021/08/17 12:00:36;;;;;;;10.55;4.80;;;20.20;95.90;;;;;;5049930;28;20025;-69
2021/08/17 12:03:10;;;;;;;9.65;5.00;;;20.30;95.40;;;;;;5049686;28;20377;-69
2021/08/17 12:05:38;;;;;;;9.45;5.40;;;20.20;95.90;;;;;;5049707;28;20033;-69
2021/08/17 12:08:08;;;;;;;11.63;5.60;;;20.00;97.30;;;;;;5052534;28;20033;-69
2021/08/17 12:10:36;;;;;;;12.38;5.90;;;20.00;97.00;;;;;;5037135;28;20116;-69
2021/08/17 12:13:13;;;;;;;11.05;5.50;;;20.10;97.00;;;;;;5054994;28;20449;-69
2021/08/17 12:15:57;;;;;;;10.50;4.28;;;20.00;97.30;;;;;;5053591;28;20489;-69
2021/08/17 12:18:33;;;;;;;10.43;5.30;;;20.10;96.10;;;;;;5053771;28;20048;-68
2021/08/17 12:21:03;;;;;;;9.63;4.97;;;20.00;97.10;;;;;;5037569;28;20025;-68
2021/08/17 12:23:38;;;;;;;10.67;4.83;;;19.70;97.50;;;;;;5037120;28;20041;-69
2021/08/17 12:26:38;;;;;;;13.63;4.88;;;19.70;97.10;;;;;;5054563;28;20087;-68
2021/08/17 12:29:18;;;;;;;7.63;4.03;;;19.70;95.40;;;;;;5050483;28;20025;-69
2021/08/17 12:31:44;;;;;;;8.38;4.38;;;19.70;95.00;;;;;;5029536;28;20033;-69
2021/08/17 12:34:10;;;;;;;8.65;4.28;;;19.80;95.60;;;;;;5034341;28;20075;-69
2021/08/17 12:36:41;;;;;;;6.72;3.90;;;19.80;94.20;;;;;;5034543;28;20451;-69
2021/08/17 12:39:30;;;;;;;8.25;4.13;;;19.70;93.90;;;;;;5034346;28;20038;-69
2021/08/17 12:42:06;;;;;;;12.88;4.32;;;19.70;94.70;;;;;;5033061;28;20095;-69
2021/08/17 12:44:40;;;;;;;7.82;3.72;;;19.60;94.50;;;;;;5017475;28;20034;-69
2021/08/17 12:47:14;;;;;;;10.30;4.45;;;19.50;93.80;;;;;;5016551;28;20053;-69
2021/08/17 12:49:46;;;;;;;7.47;4.07;;;19.60;93.80;;;;;;5034598;28;20041;-69
2021/08/17 12:52:31;;;;;;;8.20;4.25;;;19.60;95.10;;;;;;5034155;28;20494;-69